createdAt,value
2022-11-09T00:01:59.149Z,5.00
2022-11-09T00:04:25.863Z,4.93
2022-11-09T00:06:52.969Z,4.72
2022-11-09T00:09:19.769Z,4.70
2022-11-09T00:11:46.501Z,4.60
2022-11-09T00:14:16.489Z,4.32
2022-11-09T00:16:43.657Z,4.45
2022-11-09T00:19:10.339Z,4.20
2022-11-09T00:21:37.044Z,4.72
2022-11-09T00:24:03.921Z,4.85
2022-11-09T00:26:30.632Z,3.88
2022-11-09T00:28:57.356Z,3.65
2022-11-09T00:31:25.748Z,4.45
2022-11-09T00:33:54.083Z,3.92
2022-11-09T00:36:22.106Z,4.47
2022-11-09T00:38:49.907Z,5.13
2022-11-09T00:41:16.977Z,4.25
2022-11-09T00:43:43.896Z,4.07
2022-11-09T00:46:11.070Z,4.28
2022-11-09T00:48:39.253Z,4.57
2022-11-09T00:51:06.403Z,5.43
2022-11-09T00:53:33.116Z,5.22
2022-11-09T00:56:01.182Z,5.28
2022-11-09T00:58:29.512Z,4.63
2022-11-09T01:00:57.868Z,4.47
2022-11-09T01:03:25.716Z,3.97
2022-11-09T01:05:53.840Z,4.50
2022-11-09T01:08:20.549Z,4.38
2022-11-09T01:10:48.494Z,3.97
2022-11-09T01:13:17.486Z,4.88
2022-11-09T01:15:46.413Z,5.05
2022-11-09T01:18:13.846Z,4.32
2022-11-09T01:20:41.254Z,4.40
2022-11-09T01:23:10.080Z,3.53
2022-11-09T01:25:37.430Z,4.00
2022-11-09T01:28:05.241Z,4.38
2022-11-09T01:30:34.751Z,4.13
2022-11-09T01:33:03.030Z,4.82
2022-11-09T01:35:30.053Z,4.93
2022-11-09T01:37:56.748Z,4.45
2022-11-09T01:40:24.876Z,4.18
2022-11-09T01:42:51.566Z,4.57
2022-11-09T01:45:27.317Z,4.22
2022-11-09T01:47:59.240Z,4.25
2022-11-09T01:50:31.837Z,3.90
2022-11-09T01:53:02.193Z,4.18
2022-11-09T01:55:30.683Z,4.15
2022-11-09T01:58:02.329Z,3.65
2022-11-09T02:00:30.127Z,4.35
2022-11-09T02:03:00.434Z,4.80
2022-11-09T02:05:30.833Z,4.18
2022-11-09T02:07:59.384Z,4.60
2022-11-09T02:10:32.645Z,4.05
2022-11-09T02:13:00.339Z,4.13
2022-11-09T02:15:27.627Z,4.47
2022-11-09T02:17:56.418Z,4.45
2022-11-09T02:20:28.188Z,3.40
2022-11-09T02:22:55.340Z,5.00
2022-11-09T02:25:22.246Z,3.95
2022-11-09T02:27:49.635Z,3.97
2022-11-09T02:30:18.924Z,4.80
2022-11-09T02:32:45.623Z,4.47
2022-11-09T02:35:12.318Z,3.80
2022-11-09T02:37:45.210Z,3.75
2022-11-09T02:40:16.551Z,3.78
2022-11-09T02:42:43.409Z,4.25
2022-11-09T02:45:10.775Z,3.83
2022-11-09T02:47:37.533Z,4.18
2022-11-09T02:50:05.109Z,4.07
2022-11-09T02:52:31.829Z,4.00
2022-11-09T02:54:59.884Z,4.10
2022-11-09T02:57:26.638Z,3.90
2022-11-09T02:59:53.358Z,4.07
2022-11-09T03:02:20.077Z,3.85
2022-11-09T03:04:46.776Z,4.50
2022-11-09T03:07:13.556Z,4.07
2022-11-09T03:09:40.329Z,4.10
2022-11-09T03:12:08.481Z,4.03
2022-11-09T03:14:35.214Z,4.30
2022-11-09T03:17:01.924Z,3.42
2022-11-09T03:19:28.650Z,4.00
2022-11-09T03:21:55.361Z,3.75
2022-11-09T03:24:22.106Z,3.95
2022-11-09T03:26:48.822Z,3.83
2022-11-09T03:29:16.879Z,4.88
2022-11-09T03:31:43.599Z,4.72
2022-11-09T03:34:10.333Z,4.50
2022-11-09T03:36:37.045Z,4.43
2022-11-09T03:39:03.830Z,3.72
2022-11-09T03:41:30.562Z,4.38
2022-11-09T03:43:57.274Z,4.13
2022-11-09T03:46:25.342Z,3.85
2022-11-09T03:48:52.050Z,4.53
2022-11-09T03:51:18.843Z,4.57
2022-11-09T03:53:45.552Z,4.05
2022-11-09T03:56:12.246Z,4.03
2022-11-09T03:58:38.986Z,3.80
2022-11-09T04:01:05.741Z,3.50
2022-11-09T04:03:33.796Z,4.18
2022-11-09T04:06:00.528Z,4.03
2022-11-09T04:08:27.247Z,3.88
2022-11-09T04:10:53.949Z,3.63
2022-11-09T04:13:21.015Z,3.65
2022-11-09T04:15:47.994Z,3.38
2022-11-09T04:18:16.888Z,3.58
2022-11-09T04:20:45.112Z,3.67
2022-11-09T04:23:14.276Z,3.50
2022-11-09T04:25:42.265Z,3.85
2022-11-09T04:28:12.256Z,3.78
2022-11-09T04:30:39.649Z,3.25
2022-11-09T04:33:06.692Z,4.10
2022-11-09T04:35:34.372Z,3.67
2022-11-09T04:38:05.222Z,4.38
2022-11-09T04:40:33.322Z,4.68
2022-11-09T04:43:00.454Z,3.10
2022-11-09T04:45:27.530Z,3.83
2022-11-09T04:47:57.519Z,3.75
2022-11-09T04:50:24.480Z,3.55
2022-11-09T04:52:51.189Z,3.83
2022-11-09T04:55:19.457Z,3.83
2022-11-09T04:57:46.169Z,3.67
2022-11-09T05:00:13.716Z,3.70
2022-11-09T05:02:40.452Z,3.65
2022-11-09T05:05:07.724Z,3.92
2022-11-09T05:07:34.441Z,3.90
2022-11-09T05:10:01.134Z,3.85
2022-11-09T05:12:29.177Z,3.70
2022-11-09T05:14:56.047Z,3.15
2022-11-09T05:17:22.750Z,3.05
2022-11-09T05:19:52.515Z,3.20
2022-11-09T05:22:21.791Z,3.45
2022-11-09T05:24:48.523Z,3.33
2022-11-09T05:27:15.254Z,3.10
2022-11-09T05:29:43.612Z,3.53
2022-11-09T05:32:10.322Z,3.08
2022-11-09T05:34:37.037Z,3.58
2022-11-09T05:37:03.938Z,3.17
2022-11-09T05:39:30.668Z,3.13
2022-11-09T05:41:57.541Z,3.00
2022-11-09T05:44:24.260Z,3.40
2022-11-09T05:46:52.315Z,3.42
2022-11-09T05:49:19.084Z,3.40
2022-11-09T05:51:45.823Z,3.20
2022-11-09T05:54:12.657Z,3.42
2022-11-09T05:56:39.386Z,3.97
2022-11-09T05:59:06.108Z,3.40
2022-11-09T06:01:32.821Z,3.00
2022-11-09T06:04:00.882Z,3.88
2022-11-09T06:06:27.701Z,3.42
2022-11-09T06:08:54.454Z,3.60
2022-11-09T06:11:23.942Z,3.63
2022-11-09T06:13:51.350Z,3.05
2022-11-09T06:16:18.062Z,3.28
2022-11-09T06:18:44.815Z,3.08
2022-11-09T06:21:12.941Z,3.50
2022-11-09T06:23:39.659Z,3.45
2022-11-09T06:26:09.734Z,3.47
2022-11-09T06:28:37.434Z,3.45
2022-11-09T06:31:05.954Z,3.55
2022-11-09T06:33:34.579Z,3.40
2022-11-09T06:36:02.144Z,3.13
2022-11-09T06:38:30.422Z,3.17
2022-11-09T06:40:58.608Z,3.22
2022-11-09T06:43:26.204Z,3.47
2022-11-09T06:45:53.150Z,2.53
2022-11-09T06:48:19.949Z,3.33
2022-11-09T06:50:46.844Z,3.50
2022-11-09T06:53:16.383Z,2.88
2022-11-09T06:55:50.340Z,3.30
2022-11-09T06:58:18.175Z,3.03
2022-11-09T07:00:45.481Z,3.60
2022-11-09T07:03:14.543Z,3.00
2022-11-09T07:05:41.505Z,3.30
2022-11-09T07:08:08.276Z,3.30
2022-11-09T07:10:35.132Z,3.45
2022-11-09T07:13:03.384Z,3.17
2022-11-09T07:15:30.194Z,3.35
2022-11-09T07:17:57.532Z,3.70
2022-11-09T07:20:24.275Z,2.95
2022-11-09T07:22:51.225Z,3.58
2022-11-09T07:25:18.409Z,2.85
2022-11-09T07:27:45.678Z,3.50
2022-11-09T07:30:14.260Z,3.65
2022-11-09T07:33:07.553Z,3.35
2022-11-09T07:35:28.673Z,3.55
2022-11-09T07:37:58.941Z,3.25
2022-11-09T07:40:25.690Z,3.25
2022-11-09T07:42:52.426Z,3.58
2022-11-09T07:45:20.471Z,3.50
2022-11-09T07:47:47.168Z,3.60
2022-11-09T07:50:14.057Z,3.45
2022-11-09T07:52:40.778Z,4.28
2022-11-09T07:55:08.449Z,5.07
2022-11-09T07:57:35.151Z,5.70
2022-11-09T08:00:02.090Z,5.00
2022-11-09T08:02:30.222Z,5.30
2022-11-09T08:04:56.968Z,6.50
2022-11-09T08:07:23.675Z,8.00
2022-11-09T08:09:50.408Z,6.90
2022-11-09T08:12:17.117Z,7.13
2022-11-09T08:14:43.830Z,6.22
2022-11-09T08:17:10.532Z,5.75
2022-11-09T08:19:38.737Z,6.78
2022-11-09T08:22:05.457Z,5.65
2022-11-09T08:24:32.210Z,5.03
2022-11-09T08:26:59.076Z,4.82
2022-11-09T08:29:25.791Z,4.50
2022-11-09T08:31:52.542Z,3.92
2022-11-09T08:34:19.259Z,3.85
2022-11-09T08:36:47.450Z,4.95
2022-11-09T08:39:14.158Z,6.20
2022-11-09T08:41:40.891Z,5.60
2022-11-09T08:44:07.605Z,6.45
2022-11-09T08:46:39.914Z,6.07
2022-11-09T08:49:07.887Z,5.38
2022-11-09T08:51:34.646Z,5.28
2022-11-09T08:54:02.716Z,4.50
2022-11-09T08:56:29.420Z,5.57
2022-11-09T08:58:56.138Z,4.35
2022-11-09T09:01:22.943Z,4.80
2022-11-09T09:03:49.697Z,4.10
2022-11-09T09:06:16.445Z,4.35
2022-11-09T09:08:43.137Z,3.78
2022-11-09T09:11:11.213Z,3.05
2022-11-09T09:13:43.057Z,3.20
2022-11-09T09:16:11.951Z,2.95
2022-11-09T09:18:38.674Z,3.95
2022-11-09T09:21:06.966Z,4.38
2022-11-09T09:23:33.832Z,3.85
2022-11-09T09:26:00.555Z,3.95
2022-11-09T09:28:28.617Z,3.60
2022-11-09T09:30:58.101Z,3.58
2022-11-09T09:33:24.942Z,4.30
2022-11-09T09:35:51.657Z,3.50
2022-11-09T09:38:18.786Z,3.10
2022-11-09T09:40:54.612Z,3.30
2022-11-09T09:43:29.790Z,3.00
2022-11-09T09:45:58.090Z,3.38
2022-11-09T09:48:31.237Z,2.92
2022-11-09T09:51:03.992Z,3.08
2022-11-09T09:53:35.317Z,3.20
2022-11-09T09:56:05.949Z,2.90
2022-11-09T09:58:38.200Z,2.88
2022-11-09T10:01:13.824Z,2.42
2022-11-09T10:03:40.817Z,3.35
2022-11-09T10:06:22.730Z,2.53
2022-11-09T10:09:00.081Z,2.80
2022-11-09T10:11:35.667Z,2.70
2022-11-09T10:14:24.357Z,2.22
2022-11-09T10:16:58.789Z,2.38
2022-11-09T10:19:40.729Z,2.03
2022-11-09T10:22:15.621Z,2.45
2022-11-09T10:27:37.649Z,3.05
2022-11-09T10:30:14.343Z,2.08
2022-11-09T10:32:42.302Z,2.08
2022-11-09T10:35:20.124Z,2.20
2022-11-09T10:37:48.228Z,2.13
2022-11-09T10:40:18.769Z,2.05
2022-11-09T10:42:49.199Z,1.88
2022-11-09T10:45:25.285Z,2.08
2022-11-09T10:47:52.679Z,2.33
2022-11-09T10:50:26.170Z,2.15
2022-11-09T10:52:52.925Z,1.92
2022-11-09T10:55:25.121Z,1.90
2022-11-09T10:57:55.858Z,1.73
2022-11-09T11:00:24.453Z,1.48
2022-11-09T11:02:51.753Z,1.70
2022-11-09T11:05:28.007Z,1.88
2022-11-09T11:07:55.158Z,1.60
2022-11-09T11:10:23.065Z,1.95
2022-11-09T11:13:13.021Z,1.60
2022-11-09T11:15:42.341Z,1.60
2022-11-09T11:18:18.101Z,1.70
2022-11-09T11:20:45.276Z,1.52
2022-11-09T11:23:14.454Z,2.15
2022-11-09T11:26:00.836Z,1.75
2022-11-09T11:28:33.822Z,2.08
2022-11-09T11:31:02.453Z,1.70
2022-11-09T11:33:32.064Z,1.85
2022-11-09T11:36:06.246Z,1.92
2022-11-09T11:41:38.186Z,1.90
2022-11-09T11:44:18.369Z,1.98
2022-11-09T11:46:48.245Z,1.80
2022-11-09T11:49:47.802Z,2.53
2022-11-09T11:52:21.849Z,2.47
2022-11-09T11:55:16.187Z,1.95
2022-11-09T11:57:54.057Z,1.85
2022-11-09T12:00:21.432Z,1.90
2022-11-09T12:03:38.044Z,1.85
2022-11-09T12:06:27.239Z,2.22
2022-11-09T12:09:05.682Z,2.05
2022-11-09T12:11:43.687Z,2.33
2022-11-09T12:14:20.385Z,2.28
2022-11-09T12:16:53.774Z,2.40
2022-11-09T12:19:45.326Z,2.60
2022-11-09T12:22:15.540Z,2.25
2022-11-09T12:24:48.140Z,3.08
2022-11-09T12:27:44.835Z,2.15
2022-11-09T12:30:16.154Z,2.25
2022-11-09T12:32:50.808Z,2.00
2022-11-09T12:35:28.994Z,2.40
2022-11-09T12:38:00.314Z,2.30
2022-11-09T12:40:30.811Z,2.63
2022-11-09T12:43:03.729Z,2.30
2022-11-09T12:45:33.464Z,2.55
2022-11-09T12:48:06.794Z,2.92
2022-11-09T12:50:36.477Z,2.70
2022-11-09T12:53:04.884Z,2.38
2022-11-09T12:55:42.270Z,2.72
2022-11-09T12:58:21.134Z,2.35
2022-11-09T13:00:50.725Z,2.42
2022-11-09T13:03:24.672Z,2.22
2022-11-09T13:06:12.756Z,2.63
2022-11-09T13:08:40.815Z,2.47
2022-11-09T13:11:09.519Z,2.45
2022-11-09T13:13:36.950Z,1.80
2022-11-09T13:16:10.921Z,2.42
2022-11-09T13:18:49.799Z,2.05
2022-11-09T13:21:44.730Z,2.35
2022-11-09T13:24:48.114Z,2.38
2022-11-09T13:27:36.123Z,2.40
2022-11-09T13:30:30.696Z,2.50
2022-11-09T13:33:25.697Z,2.55
2022-11-09T13:35:58.465Z,2.88
2022-11-09T13:38:28.672Z,2.63
2022-11-09T13:40:56.372Z,2.63
2022-11-09T13:43:26.094Z,2.60
2022-11-09T13:45:55.540Z,3.03
2022-11-09T13:48:40.393Z,2.28
2022-11-09T13:51:10.402Z,2.70
2022-11-09T13:53:56.778Z,2.20
2022-11-09T13:56:34.620Z,2.80
2022-11-09T13:59:13.524Z,3.20
2022-11-09T14:01:47.079Z,3.42
2022-11-09T14:04:27.614Z,2.67
2022-11-09T14:07:01.741Z,2.78
2022-11-09T14:12:20.169Z,2.35
2022-11-09T14:15:10.083Z,2.00
2022-11-09T14:17:45.212Z,2.80
2022-11-09T14:20:24.211Z,2.92
2022-11-09T14:22:51.493Z,2.53
2022-11-09T14:25:22.146Z,3.33
2022-11-09T14:27:50.193Z,3.22
2022-11-09T14:30:21.930Z,2.85
2022-11-09T14:32:50.974Z,3.13
2022-11-09T14:35:24.051Z,3.00
2022-11-09T14:37:52.771Z,2.65
2022-11-09T14:40:24.692Z,2.97
2022-11-09T14:42:54.394Z,2.75
2022-11-09T14:45:21.769Z,2.75
2022-11-09T14:47:51.114Z,2.90
2022-11-09T14:50:20.965Z,2.17
2022-11-09T14:52:48.543Z,2.78
2022-11-09T14:55:17.134Z,2.58
2022-11-09T14:57:46.653Z,2.17
2022-11-09T15:00:25.658Z,2.72
2022-11-09T15:02:52.389Z,2.42
2022-11-09T15:05:31.121Z,2.60
2022-11-09T15:07:58.806Z,2.22
2022-11-09T15:10:25.839Z,2.45
2022-11-09T15:12:58.865Z,2.00
2022-11-09T15:15:28.570Z,2.80
2022-11-09T15:17:55.754Z,2.67
2022-11-09T15:20:32.247Z,2.50
2022-11-09T15:23:00.750Z,2.80
2022-11-09T15:25:30.645Z,4.40
2022-11-09T15:28:17.011Z,3.75
2022-11-09T15:30:46.541Z,3.75
2022-11-09T15:33:23.389Z,3.03
2022-11-09T15:35:51.221Z,2.97
2022-11-09T15:38:33.900Z,4.45
2022-11-09T15:41:01.327Z,6.13
2022-11-09T15:43:29.724Z,3.88
2022-11-09T15:45:58.829Z,3.50
2022-11-09T15:48:25.678Z,15.40
2022-11-09T15:50:52.465Z,5.50
2022-11-09T15:53:19.273Z,3.53
2022-11-09T15:55:46.349Z,15.43
2022-11-09T15:58:14.671Z,7.03
2022-11-09T16:00:42.979Z,6.15
2022-11-09T16:03:10.304Z,6.68
2022-11-09T16:05:37.025Z,6.00
2022-11-09T16:08:04.231Z,6.38
2022-11-09T16:10:31.749Z,6.80
2022-11-09T16:12:58.473Z,4.30
2022-11-09T16:15:26.098Z,3.65
2022-11-09T16:17:54.474Z,4.28
2022-11-09T16:20:21.566Z,4.50
2022-11-09T16:22:48.548Z,2.88
2022-11-09T16:25:15.666Z,3.78
2022-11-09T16:27:50.026Z,3.17
2022-11-09T16:30:17.343Z,3.45
2022-11-09T16:32:44.056Z,3.08
2022-11-09T16:35:28.627Z,3.03
2022-11-09T16:37:56.024Z,3.08
2022-11-09T16:40:22.969Z,3.58
2022-11-09T16:42:51.499Z,3.55
2022-11-09T16:45:18.288Z,2.72
2022-11-09T16:47:48.736Z,2.80
2022-11-09T16:50:17.141Z,2.80
2022-11-09T16:52:43.844Z,2.60
2022-11-09T16:55:10.583Z,2.72
2022-11-09T16:57:37.352Z,2.35
2022-11-09T17:00:05.580Z,2.85
2022-11-09T17:02:32.304Z,2.40
2022-11-09T17:04:59.054Z,2.58
2022-11-09T17:07:27.754Z,2.33
2022-11-09T17:09:54.473Z,2.60
2022-11-09T17:12:21.347Z,2.55
2022-11-09T17:14:48.056Z,2.38
2022-11-09T17:17:19.663Z,2.60
2022-11-09T17:19:49.219Z,2.38
2022-11-09T17:22:16.721Z,2.63
2022-11-09T17:24:45.168Z,2.47
2022-11-09T17:27:12.543Z,2.55
2022-11-09T17:29:39.920Z,3.05
2022-11-09T17:32:08.604Z,2.95
2022-11-09T17:34:35.608Z,2.70
2022-11-09T17:37:04.783Z,2.72
2022-11-09T17:39:32.823Z,2.42
2022-11-09T17:42:01.213Z,3.38
2022-11-09T17:44:28.217Z,2.42
2022-11-09T17:46:55.455Z,2.40
2022-11-09T17:49:23.718Z,2.45
2022-11-09T17:51:51.167Z,2.60
2022-11-09T17:54:18.748Z,3.25
2022-11-09T17:56:46.049Z,2.40
2022-11-09T17:59:14.944Z,3.33
2022-11-09T18:01:42.504Z,3.30
2022-11-09T18:04:11.918Z,2.70
2022-11-09T18:06:39.390Z,3.03
2022-11-09T18:09:39.536Z,2.83
2022-11-09T18:11:55.906Z,3.40
2022-11-09T18:14:26.851Z,3.67
2022-11-09T18:16:53.664Z,3.20
2022-11-09T18:19:20.499Z,3.05
2022-11-09T18:21:47.967Z,3.35
2022-11-09T18:24:16.485Z,3.45
2022-11-09T18:26:44.823Z,3.53
2022-11-09T18:29:12.075Z,3.58
2022-11-09T18:31:41.234Z,3.33
2022-11-09T18:34:11.550Z,3.28
2022-11-09T18:36:39.557Z,2.58
2022-11-09T18:39:07.020Z,2.65
2022-11-09T18:41:37.328Z,3.13
2022-11-09T18:44:08.083Z,3.00
2022-11-09T18:46:35.272Z,3.03
2022-11-09T18:49:07.854Z,2.80
2022-11-09T18:51:37.429Z,2.83
2022-11-09T18:54:04.294Z,2.67
2022-11-09T18:56:31.125Z,2.42
2022-11-09T18:58:58.034Z,2.70
2022-11-09T19:01:25.587Z,2.78
2022-11-09T19:03:58.745Z,2.65
2022-11-09T19:06:28.056Z,2.45
2022-11-09T19:08:55.356Z,2.53
2022-11-09T19:11:22.684Z,2.70
2022-11-09T19:13:49.603Z,2.58
2022-11-09T19:16:17.514Z,2.65
2022-11-09T19:18:44.528Z,3.20
2022-11-09T19:21:27.352Z,2.60
2022-11-09T19:23:56.060Z,2.88
2022-11-09T19:26:22.825Z,2.08
2022-11-09T19:28:49.614Z,2.97
2022-11-09T19:31:18.393Z,2.65
2022-11-09T19:33:45.117Z,2.17
2022-11-09T19:39:00.461Z,2.00
2022-11-09T19:41:27.230Z,1.92
2022-11-09T19:43:55.583Z,1.88
2022-11-09T19:46:22.528Z,1.75
2022-11-09T19:48:49.290Z,1.90
2022-11-09T19:51:17.223Z,2.08
2022-11-09T19:53:48.679Z,1.92
2022-11-09T19:56:17.202Z,2.22
2022-11-09T19:58:47.348Z,1.63
2022-11-09T20:01:14.128Z,1.85
2022-11-09T20:03:40.868Z,1.83
2022-11-09T20:06:08.211Z,2.15
2022-11-09T20:08:36.513Z,2.00
2022-11-09T20:11:07.507Z,2.42
2022-11-09T20:13:37.696Z,2.75
2022-11-09T20:16:05.684Z,2.50
2022-11-09T20:18:35.145Z,2.50
2022-11-09T20:21:01.883Z,2.85
2022-11-09T20:23:28.592Z,2.50
2022-11-09T20:26:03.346Z,3.03
2022-11-09T20:28:30.075Z,2.85
2022-11-09T20:30:58.184Z,3.10
2022-11-09T20:33:24.979Z,3.30
2022-11-09T20:35:52.169Z,4.05
2022-11-09T20:38:19.382Z,3.30
2022-11-09T20:40:53.540Z,3.47
2022-11-09T20:43:20.303Z,4.28
2022-11-09T20:45:47.079Z,4.25
2022-11-09T20:48:46.514Z,3.65
2022-11-09T20:51:05.680Z,3.80
2022-11-09T20:53:32.593Z,3.67
2022-11-09T20:55:59.501Z,4.25
2022-11-09T20:58:26.648Z,4.85
2022-11-09T21:01:00.954Z,4.75
2022-11-09T21:03:29.089Z,3.78
2022-11-09T21:05:58.937Z,5.35
2022-11-09T21:08:26.516Z,4.50
2022-11-09T21:10:53.404Z,4.93
2022-11-09T21:13:20.371Z,4.28
2022-11-09T21:15:47.232Z,4.20
2022-11-09T21:18:13.999Z,4.65
2022-11-09T21:20:42.301Z,4.50
2022-11-09T21:23:09.647Z,5.00
2022-11-09T21:25:37.090Z,4.07
2022-11-09T21:28:04.145Z,4.72
2022-11-09T21:30:31.860Z,4.93
2022-11-09T21:32:58.568Z,5.07
2022-11-09T21:35:25.476Z,6.22
2022-11-09T21:37:56.320Z,4.63
2022-11-09T21:40:23.021Z,5.65
2022-11-09T21:42:49.761Z,4.80
2022-11-09T21:45:16.651Z,5.50
2022-11-09T21:47:43.358Z,5.05
2022-11-09T21:50:12.782Z,4.85
2022-11-09T21:52:39.777Z,5.25
2022-11-09T21:55:08.407Z,5.47
2022-11-09T21:57:35.111Z,5.13
2022-11-09T22:00:01.834Z,5.32
2022-11-09T22:02:28.528Z,5.65
2022-11-09T22:04:55.271Z,4.93
2022-11-09T22:07:21.968Z,4.50
2022-11-09T22:10:08.805Z,5.57
2022-11-09T22:12:38.474Z,5.35
2022-11-09T22:15:06.149Z,5.50
2022-11-09T22:17:32.849Z,5.78
2022-11-09T22:19:59.540Z,5.35
2022-11-09T22:22:28.338Z,5.07
2022-11-09T22:24:55.054Z,5.55
2022-11-09T22:27:21.970Z,6.20
2022-11-09T22:29:50.055Z,6.13
2022-11-09T22:32:16.956Z,5.22
2022-11-09T22:34:43.676Z,6.03
2022-11-09T22:37:10.481Z,5.43
2022-11-09T22:39:37.196Z,5.18
2022-11-09T22:42:03.945Z,5.28
2022-11-09T22:44:30.659Z,5.65
2022-11-09T22:46:58.796Z,5.15
2022-11-09T22:49:25.900Z,5.97
2022-11-09T22:51:52.791Z,5.35
2022-11-09T22:54:21.056Z,6.20
2022-11-09T22:56:47.824Z,5.05
2022-11-09T22:59:14.593Z,5.53
2022-11-09T23:01:41.374Z,5.13
2022-11-09T23:04:10.391Z,5.35
2022-11-09T23:06:37.170Z,5.55
2022-11-09T23:09:04.251Z,5.50
2022-11-09T23:11:31.005Z,4.97
2022-11-09T23:13:57.747Z,4.93
2022-11-09T23:16:24.587Z,5.22
2022-11-09T23:18:51.689Z,5.20
2022-11-09T23:21:19.886Z,5.15
2022-11-09T23:23:46.949Z,4.78
2022-11-09T23:26:13.677Z,4.50
2022-11-09T23:28:40.448Z,4.30
2022-11-09T23:31:09.274Z,4.57
2022-11-09T23:33:36.610Z,4.20
2022-11-09T23:36:05.121Z,5.43
2022-11-09T23:38:34.069Z,4.32
2022-11-09T23:41:01.912Z,4.45
2022-11-09T23:43:28.644Z,4.63
2022-11-09T23:45:56.043Z,3.92
2022-11-09T23:48:22.755Z,4.25
2022-11-09T23:50:49.464Z,4.15
2022-11-09T23:53:16.174Z,4.35
2022-11-09T23:55:44.232Z,3.70
2022-11-09T23:58:10.923Z,3.58
